Time;durP1;ratioP1;P1;durP2;ratioP2;P2;SDS_P1;SDS_P2;PMS_P1;PMS_P2;Temp;Humidity;BMP_temperature;BMP_pressure;BME280_temperature;BME280_humidity;BME280_pressure;Samples;Min_cycle;Max_cycle;Signal;HPM_P1;HPM_P2
2023/05/01 00:00:04;;;;;;;3.93;2.60;;;12.90;69.00;;;;;;6110359;23;20160;-71
2023/05/01 00:02:30;;;;;;;4.20;2.50;;;12.90;68.90;;;;;;6138027;23;20153;-74
2023/05/01 00:04:56;;;;;;;5.10;3.50;;;12.90;68.80;;;;;;6088736;23;20438;-75
2023/05/01 00:07:21;;;;;;;2.93;2.53;;;12.90;68.80;;;;;;6138822;23;20140;-73
2023/05/01 00:09:47;;;;;;;5.47;2.80;;;12.90;69.10;;;;;;6137338;23;20399;-71
2023/05/01 00:12:13;;;;;;;3.73;2.70;;;12.90;69.20;;;;;;6136526;23;20403;-73
2023/05/01 00:14:39;;;;;;;3.97;2.53;;;13.00;68.90;;;;;;6140012;23;20124;-71
2023/05/01 00:17:05;;;;;;;3.10;2.43;;;13.00;68.20;;;;;;6089066;23;20251;-72
2023/05/01 00:19:31;;;;;;;6.23;2.80;;;13.00;68.20;;;;;;6113611;23;20215;-74
2023/05/01 00:21:57;;;;;;;3.67;2.47;;;13.00;68.20;;;;;;6115428;23;20395;-72
2023/05/01 00:24:23;;;;;;;3.87;2.30;;;13.00;67.90;;;;;;6135088;23;20470;-71
2023/05/01 00:26:48;;;;;;;6.10;2.27;;;13.00;67.80;;;;;;6087366;23;20144;-71
2023/05/01 00:29:15;;;;;;;3.37;2.50;;;13.00;69.00;;;;;;6138857;23;20199;-71
2023/05/01 00:31:41;;;;;;;3.97;2.60;;;13.00;68.50;;;;;;6112432;23;20384;-73
2023/05/01 00:34:08;;;;;;;6.53;2.43;;;13.00;68.50;;;;;;6111830;23;20390;-72
2023/05/01 00:36:33;;;;;;;3.27;2.70;;;12.90;68.60;;;;;;6136281;23;20385;-70
2023/05/01 00:38:59;;;;;;;4.87;2.93;;;12.90;68.50;;;;;;6110374;23;20465;-72
2023/05/01 00:41:25;;;;;;;4.13;2.83;;;12.90;68.30;;;;;;6106374;23;20218;-72
2023/05/01 00:43:50;;;;;;;6.43;3.37;;;12.90;67.70;;;;;;6108242;23;20133;-72
2023/05/01 00:46:17;;;;;;;3.60;2.73;;;12.90;67.50;;;;;;6085262;23;20153;-73
2023/05/01 00:48:43;;;;;;;5.17;3.23;;;12.90;67.50;;;;;;6081863;23;20155;-68
2023/05/01 00:51:09;;;;;;;5.07;2.53;;;12.90;67.30;;;;;;6083443;23;20388;-72
2023/05/01 00:53:34;;;;;;;3.93;2.90;;;13.00;67.60;;;;;;6086380;23;20365;-71
2023/05/01 00:56:01;;;;;;;2.90;2.30;;;12.90;67.90;;;;;;6086834;23;20204;-71
2023/05/01 00:58:28;;;;;;;4.70;2.97;;;12.90;68.20;;;;;;6082267;23;20491;-72
2023/05/01 01:00:54;;;;;;;3.77;2.40;;;12.90;68.30;;;;;;6081653;23;20397;-71
2023/05/01 01:03:20;;;;;;;4.50;2.40;;;12.90;68.40;;;;;;6107698;23;20365;-71
2023/05/01 01:05:56;;;;;;;3.57;2.40;;;12.90;68.20;;;;;;6107050;23;20384;-71
2023/05/01 01:08:32;;;;;;;4.10;2.40;;;12.90;67.60;;;;;;6080878;23;20215;-72
2023/05/01 01:11:18;;;;;;;3.87;2.60;;;12.90;67.70;;;;;;6106037;23;20391;-71
2023/05/01 01:14:05;;;;;;;5.83;3.30;;;12.90;67.60;;;;;;6053631;23;20786;-71
2023/05/01 01:16:36;;;;;;;7.00;3.47;;;12.90;67.20;;;;;;6107955;23;20635;-70
2023/05/01 01:19:28;;;;;;;4.33;3.10;;;12.90;66.50;;;;;;6082424;23;20404;-70
2023/05/01 01:22:00;;;;;;;4.63;3.70;;;12.90;65.70;;;;;;6081345;23;20391;-70
2023/05/01 01:24:57;;;;;;;5.70;3.00;;;12.90;65.60;;;;;;6081415;23;20373;-69
2023/05/01 01:27:26;;;;;;;6.33;2.70;;;12.90;65.10;;;;;;6080532;23;20373;-71
2023/05/01 01:30:22;;;;;;;5.03;2.80;;;12.90;64.40;;;;;;6079349;23;20401;-70
2023/05/01 01:33:25;;;;;;;5.33;2.67;;;13.00;64.10;;;;;;6107374;23;20432;-68
2023/05/01 01:35:57;;;;;;;4.63;2.73;;;13.00;64.10;;;;;;6083524;23;20344;-70
2023/05/01 01:38:33;;;;;;;4.83;3.17;;;12.90;64.20;;;;;;6101050;23;20417;-72
2023/05/01 01:41:07;;;;;;;3.17;2.57;;;12.90;64.50;;;;;;6097459;23;20411;-70
2023/05/01 01:43:57;;;;;;;3.10;2.43;;;12.90;64.70;;;;;;6135631;23;20421;-71
2023/05/01 01:46:25;;;;;;;2.97;2.67;;;12.80;64.70;;;;;;6112219;23;20427;-71
2023/05/01 01:48:55;;;;;;;3.13;2.40;;;12.80;64.40;;;;;;6133813;23;20431;-72
2023/05/01 01:51:22;;;;;;;4.87;2.90;;;12.80;64.40;;;;;;6112546;23;20383;-72
2023/05/01 01:53:52;;;;;;;3.93;2.57;;;12.80;64.40;;;;;;6112679;23;20380;-71
2023/05/01 01:56:20;;;;;;;3.33;2.60;;;12.80;64.40;;;;;;6114377;23;20451;-70
2023/05/01 01:58:47;;;;;;;3.20;2.50;;;12.80;64.30;;;;;;6117814;23;20423;-71
2023/05/01 02:01:14;;;;;;;4.00;2.87;;;12.80;64.50;;;;;;6118717;23;20793;-70
2023/05/01 02:03:43;;;;;;;2.40;2.20;;;12.80;64.50;;;;;;6140294;23;20458;-70
2023/05/01 02:06:12;;;;;;;4.57;2.67;;;12.80;64.80;;;;;;6118059;23;20380;-71
2023/05/01 02:08:38;;;;;;;3.50;3.03;;;12.80;65.00;;;;;;6143511;23;20376;-69
2023/05/01 02:11:05;;;;;;;2.83;2.43;;;12.80;64.90;;;;;;6092546;23;20395;-69
2023/05/01 02:13:32;;;;;;;5.13;2.60;;;12.80;64.50;;;;;;6135947;23;20371;-71
2023/05/01 02:15:58;;;;;;;4.37;3.17;;;12.80;64.90;;;;;;6112088;23;20451;-71
2023/05/01 02:18:27;;;;;;;6.37;2.30;;;12.70;65.10;;;;;;6111303;23;20419;-70
2023/05/01 02:20:55;;;;;;;3.30;2.60;;;12.70;65.30;;;;;;6114695;23;20415;-71
2023/05/01 02:23:22;;;;;;;5.43;3.33;;;12.70;65.50;;;;;;6136569;23;20399;-69
2023/05/01 02:25:51;;;;;;;4.60;2.20;;;12.70;65.70;;;;;;6111979;23;20368;-72
2023/05/01 02:28:22;;;;;;;3.27;2.30;;;12.70;66.20;;;;;;6112611;23;20390;-71
2023/05/01 02:30:47;;;;;;;5.20;2.70;;;12.70;66.20;;;;;;6139256;23;20475;-71
2023/05/01 02:33:13;;;;;;;5.67;2.53;;;12.70;66.20;;;;;;6111907;23;20380;-74
2023/05/01 02:35:40;;;;;;;2.30;2.10;;;12.70;66.40;;;;;;6136758;23;20419;-71
2023/05/01 02:38:06;;;;;;;2.50;2.07;;;12.70;66.50;;;;;;6137852;23;20180;-71
2023/05/01 02:40:35;;;;;;;3.67;2.93;;;12.60;66.40;;;;;;6131213;23;20746;-70
2023/05/01 02:43:05;;;;;;;4.80;2.80;;;12.60;66.50;;;;;;6110423;23;20145;-72
2023/05/01 02:45:35;;;;;;;3.93;2.77;;;12.70;66.60;;;;;;6109224;23;20365;-70
2023/05/01 02:48:04;;;;;;;2.63;2.43;;;12.70;66.10;;;;;;6107604;23;20643;-70
2023/05/01 02:50:33;;;;;;;2.93;2.37;;;12.70;66.20;;;;;;6107437;23;20392;-70
2023/05/01 02:52:59;;;;;;;3.47;2.50;;;12.60;66.40;;;;;;6082508;23;20456;-71
2023/05/01 02:55:43;;;;;;;3.27;2.57;;;12.60;66.90;;;;;;6082293;23;20376;-71
2023/05/01 02:58:14;;;;;;;3.70;2.50;;;12.60;67.50;;;;;;6106301;23;20409;-72
2023/05/01 03:00:41;;;;;;;2.70;2.27;;;12.60;68.00;;;;;;6107569;23;20218;-70
2023/05/01 03:03:07;;;;;;;2.90;2.50;;;12.60;68.50;;;;;;6106236;23;20388;-71
2023/05/01 03:05:32;;;;;;;5.00;3.53;;;12.50;68.90;;;;;;6107866;23;20444;-70
2023/05/01 03:07:58;;;;;;;3.00;2.50;;;12.50;69.30;;;;;;6106888;23;20204;-71
2023/05/01 03:10:25;;;;;;;4.70;3.30;;;12.40;69.60;;;;;;6108050;23;20173;-72
2023/05/01 03:12:51;;;;;;;4.87;3.10;;;12.50;69.90;;;;;;6080451;23;20157;-70
2023/05/01 03:15:17;;;;;;;4.20;2.77;;;12.40;69.70;;;;;;6105527;23;20372;-71
2023/05/01 03:17:43;;;;;;;5.97;3.00;;;12.40;70.10;;;;;;6081135;23;20492;-70
2023/05/01 03:20:09;;;;;;;3.33;3.03;;;12.40;70.40;;;;;;6104854;23;20242;-70
2023/05/01 03:22:35;;;;;;;5.10;3.33;;;12.30;70.80;;;;;;6081755;23;20605;-71
2023/05/01 03:25:03;;;;;;;4.13;3.47;;;12.30;71.40;;;;;;6081783;23;20509;-71
2023/05/01 03:27:29;;;;;;;3.73;2.70;;;12.30;72.10;;;;;;6079434;23;20389;-72
2023/05/01 03:30:05;;;;;;;7.10;3.13;;;12.20;72.80;;;;;;6105507;23;20404;-69
2023/05/01 03:32:35;;;;;;;3.43;2.70;;;12.20;73.60;;;;;;6080930;23;20397;-70
2023/05/01 03:35:02;;;;;;;4.40;3.00;;;12.10;73.80;;;;;;6105848;23;20448;-70
2023/05/01 03:37:28;;;;;;;3.80;2.60;;;12.10;74.70;;;;;;6083176;23;20409;-68
2023/05/01 03:39:53;;;;;;;4.20;3.00;;;12.00;75.50;;;;;;6116856;23;20194;-70
2023/05/01 03:42:37;;;;;;;5.67;3.87;;;12.00;76.00;;;;;;6144204;23;20167;-71
2023/05/01 03:45:10;;;;;;;3.40;2.53;;;11.90;76.60;;;;;;6110265;23;20368;-70
2023/05/01 03:47:36;;;;;;;3.30;2.77;;;11.90;77.20;;;;;;6136314;23;20413;-70
2023/05/01 03:50:03;;;;;;;3.90;2.90;;;11.80;77.60;;;;;;6108029;23;20431;-68
2023/05/01 03:52:30;;;;;;;4.00;2.87;;;11.80;77.80;;;;;;6136103;23;20475;-72
2023/05/01 03:54:57;;;;;;;3.50;2.60;;;11.70;78.20;;;;;;6131053;23;20423;-70
2023/05/01 03:57:31;;;;;;;4.50;3.30;;;11.70;79.10;;;;;;6133329;23;20497;-68
2023/05/01 03:59:58;;;;;;;3.90;2.70;;;11.70;79.20;;;;;;6132149;23;20661;-71
2023/05/01 04:02:23;;;;;;;5.60;3.60;;;11.70;80.40;;;;;;6132029;23;20128;-70
2023/05/01 04:04:49;;;;;;;4.13;3.43;;;11.60;80.80;;;;;;6107693;23;20379;-75
2023/05/01 04:07:15;;;;;;;5.40;3.80;;;11.60;82.00;;;;;;6133146;23;20223;-71
2023/05/01 04:09:42;;;;;;;4.53;3.53;;;11.60;83.10;;;;;;6108721;23;20198;-69
2023/05/01 04:12:08;;;;;;;6.30;3.23;;;11.60;83.50;;;;;;6108434;23;20408;-70
2023/05/01 04:14:33;;;;;;;2.87;2.57;;;11.60;84.20;;;;;;6108748;23;20368;-69
2023/05/01 04:16:59;;;;;;;3.97;3.20;;;11.50;84.60;;;;;;6132892;23;20204;-69
2023/05/01 04:19:27;;;;;;;4.50;2.93;;;11.50;85.00;;;;;;6132556;23;20199;-70
2023/05/01 04:21:57;;;;;;;6.67;4.30;;;11.50;85.40;;;;;;6084394;23;20860;-69
2023/05/01 04:24:22;;;;;;;3.70;3.13;;;11.50;84.50;;;;;;6107982;23;20788;-69
2023/05/01 04:26:49;;;;;;;5.80;3.40;;;11.50;84.20;;;;;;6139145;23;20383;-71
2023/05/01 04:29:14;;;;;;;4.07;3.67;;;11.50;85.10;;;;;;6137602;23;20542;-72
2023/05/01 04:31:42;;;;;;;5.40;3.00;;;11.50;85.70;;;;;;6134878;23;20376;-68
2023/05/01 04:34:08;;;;;;;3.77;2.90;;;11.50;85.00;;;;;;6108889;23;20187;-71
2023/05/01 04:36:36;;;;;;;4.53;3.10;;;11.50;85.40;;;;;;6108969;23;20375;-69
2023/05/01 04:39:02;;;;;;;3.90;3.50;;;11.60;85.70;;;;;;6107355;23;20813;-70
2023/05/01 04:41:29;;;;;;;4.33;3.43;;;11.50;85.50;;;;;;6107047;23;20206;-70
2023/05/01 04:43:55;;;;;;;4.80;3.10;;;11.60;85.60;;;;;;6131241;23;20364;-69
2023/05/01 04:46:20;;;;;;;5.10;3.00;;;11.60;85.60;;;;;;6108491;23;20166;-69
2023/05/01 04:48:46;;;;;;;7.00;3.50;;;11.70;85.20;;;;;;6107680;23;20151;-69
2023/05/01 04:51:12;;;;;;;3.40;2.90;;;11.70;85.40;;;;;;6108902;23;20175;-71
2023/05/01 04:53:38;;;;;;;5.37;3.50;;;11.70;84.70;;;;;;6108047;23;20155;-68
2023/05/01 04:56:11;;;;;;;3.83;3.17;;;11.70;84.10;;;;;;6108360;23;20385;-70
2023/05/01 04:58:37;;;;;;;4.03;2.87;;;11.80;84.20;;;;;;6133270;23;20411;-70
2023/05/01 05:01:08;;;;;;;3.03;2.30;;;11.80;83.70;;;;;;6132707;23;20379;-70
2023/05/01 05:03:34;;;;;;;3.57;2.77;;;11.90;83.60;;;;;;6107440;23;20360;-69
2023/05/01 05:06:00;;;;;;;5.30;3.60;;;11.90;83.10;;;;;;6107169;23;20368;-69
2023/05/01 05:08:26;;;;;;;8.50;3.57;;;11.90;82.80;;;;;;6108040;23;20391;-70
2023/05/01 05:11:00;;;;;;;6.73;3.00;;;12.00;82.40;;;;;;6130125;23;20163;-69
2023/05/01 05:13:30;;;;;;;4.20;3.57;;;12.00;80.60;;;;;;6107244;23;20399;-70
2023/05/01 05:16:02;;;;;;;3.57;3.13;;;12.10;79.50;;;;;;6106674;23;20384;-69
2023/05/01 05:18:28;;;;;;;6.83;3.23;;;12.10;78.60;;;;;;6107257;23;20411;-71
2023/05/01 05:20:55;;;;;;;4.17;3.60;;;12.20;77.90;;;;;;6106199;23;20394;-70
2023/05/01 05:23:22;;;;;;;4.87;3.43;;;12.20;77.20;;;;;;6105935;23;20817;-70
2023/05/01 05:25:49;;;;;;;5.43;3.30;;;12.30;77.00;;;;;;6107144;23;20461;-70
2023/05/01 05:28:15;;;;;;;4.23;3.00;;;12.40;76.10;;;;;;6131888;23;20375;-69
2023/05/01 05:30:43;;;;;;;3.40;3.07;;;12.40;76.40;;;;;;6105794;23;20190;-70
2023/05/01 05:33:12;;;;;;;5.50;3.10;;;12.40;75.70;;;;;;6109873;23;20402;-69
2023/05/01 05:35:38;;;;;;;3.67;3.10;;;12.40;75.20;;;;;;6107902;23;20391;-71
2023/05/01 05:38:05;;;;;;;4.50;3.37;;;12.60;75.50;;;;;;6107374;23;20693;-71
2023/05/01 05:40:34;;;;;;;4.53;3.70;;;12.60;74.70;;;;;;6138310;23;20589;-68
2023/05/01 05:43:00;;;;;;;9.70;3.50;;;12.70;73.70;;;;;;6138044;23;20426;-70
2023/05/01 05:45:28;;;;;;;4.07;3.00;;;12.70;73.50;;;;;;6114558;23;20148;-69
2023/05/01 05:47:53;;;;;;;4.40;3.17;;;12.80;72.90;;;;;;6139780;23;20373;-70
2023/05/01 05:50:19;;;;;;;8.67;3.43;;;12.90;70.90;;;;;;6114000;23;20418;-69
2023/05/01 05:52:46;;;;;;;4.83;2.90;;;12.90;70.10;;;;;;6141472;23;20147;-70
2023/05/01 05:55:12;;;;;;;6.20;3.07;;;13.00;70.30;;;;;;6115107;23;20372;-70
2023/05/01 05:57:39;;;;;;;4.23;3.00;;;13.10;70.10;;;;;;6114207;23;20434;-69
2023/05/01 06:00:08;;;;;;;5.10;3.40;;;13.20;68.10;;;;;;6140825;23;20375;-69
2023/05/01 06:02:45;;;;;;;4.17;3.53;;;13.30;67.00;;;;;;6137093;23;20446;-71
2023/05/01 06:05:11;;;;;;;6.83;3.40;;;13.30;66.20;;;;;;6108650;23;20383;-70
2023/05/01 06:07:37;;;;;;;3.83;3.43;;;13.40;65.30;;;;;;6083943;23;20882;-70
2023/05/01 06:10:04;;;;;;;5.97;3.60;;;13.50;64.40;;;;;;6116237;23;20221;-71
2023/05/01 06:12:32;;;;;;;6.10;3.67;;;13.40;63.70;;;;;;6119675;23;20404;-69
2023/05/01 06:14:58;;;;;;;4.90;3.47;;;13.50;64.30;;;;;;6114336;23;20375;-70
2023/05/01 06:17:25;;;;;;;6.27;3.00;;;13.50;64.60;;;;;;6132314;23;20446;-68
2023/05/01 06:19:53;;;;;;;6.63;3.47;;;13.60;64.90;;;;;;6107209;23;20486;-71
2023/05/01 06:22:19;;;;;;;5.37;3.87;;;13.70;64.30;;;;;;6131933;23;20148;-69
2023/05/01 06:24:59;;;;;;;4.50;3.17;;;13.70;63.70;;;;;;6109956;23;20734;-71
2023/05/01 06:27:26;;;;;;;6.60;3.80;;;13.80;63.60;;;;;;6108140;23;20478;-71
2023/05/01 06:29:52;;;;;;;4.60;2.77;;;13.80;62.80;;;;;;6133532;23;20427;-69
2023/05/01 06:32:18;;;;;;;5.13;3.70;;;13.80;62.20;;;;;;6110050;23;20457;-72
2023/05/01 06:34:45;;;;;;;3.77;3.37;;;13.90;63.20;;;;;;6134387;23;20219;-70
2023/05/01 06:37:11;;;;;;;3.47;3.00;;;14.00;62.80;;;;;;6135562;23;20833;-71
2023/05/01 06:39:36;;;;;;;4.07;3.00;;;14.10;62.30;;;;;;6133506;23;20167;-72
2023/05/01 06:42:02;;;;;;;5.93;3.90;;;14.10;62.70;;;;;;6133945;23;20163;-68
2023/05/01 06:44:37;;;;;;;4.60;3.17;;;14.10;61.60;;;;;;6131872;23;20182;-70
2023/05/01 06:47:02;;;;;;;2.97;2.60;;;14.10;62.40;;;;;;6107540;23;20387;-70
2023/05/01 06:49:28;;;;;;;3.97;3.20;;;14.20;62.40;;;;;;6106570;23;20211;-72
2023/05/01 06:51:53;;;;;;;4.50;3.43;;;14.30;62.10;;;;;;6108854;23;20153;-71
2023/05/01 06:54:19;;;;;;;4.80;3.13;;;14.30;60.90;;;;;;6108819;23;20170;-69
2023/05/01 06:56:44;;;;;;;4.57;3.37;;;14.30;61.00;;;;;;6134622;23;20203;-70
2023/05/01 06:59:10;;;;;;;7.00;3.83;;;14.30;59.90;;;;;;6135523;23;20171;-70
2023/05/01 07:01:36;;;;;;;6.00;3.00;;;14.40;60.60;;;;;;6110847;23;20450;-73
2023/05/01 07:04:02;;;;;;;4.23;3.83;;;14.50;60.70;;;;;;6112278;23;20150;-70
2023/05/01 07:06:28;;;;;;;5.47;3.67;;;14.70;59.90;;;;;;6136297;23;20144;-70
2023/05/01 07:08:54;;;;;;;6.00;3.10;;;14.80;58.60;;;;;;6136587;23;20389;-70
2023/05/01 07:11:19;;;;;;;7.40;2.97;;;14.80;58.60;;;;;;6138102;23;20410;-69
2023/05/01 07:13:45;;;;;;;4.30;2.67;;;14.90;58.00;;;;;;6141876;23;20144;-69
2023/05/01 07:16:10;;;;;;;4.73;2.60;;;15.00;58.00;;;;;;6141095;23;20492;-73
2023/05/01 07:18:36;;;;;;;5.13;2.90;;;15.10;57.60;;;;;;6142002;23;20176;-68
2023/05/01 07:21:02;;;;;;;3.97;2.47;;;15.10;56.50;;;;;;6141133;23;20136;-71
2023/05/01 07:23:27;;;;;;;3.10;2.77;;;15.20;55.90;;;;;;6144096;23;20234;-70
2023/05/01 07:25:54;;;;;;;4.03;2.70;;;15.20;55.50;;;;;;6143880;23;20197;-73
2023/05/01 07:28:21;;;;;;;3.20;2.80;;;15.30;55.60;;;;;;6116139;23;20439;-70
2023/05/01 07:30:47;;;;;;;2.43;2.20;;;15.30;55.70;;;;;;6138272;23;20429;-69
2023/05/01 07:33:12;;;;;;;3.40;2.40;;;15.50;55.40;;;;;;6134010;23;20372;-72
2023/05/01 07:35:38;;;;;;;4.70;3.00;;;15.70;55.30;;;;;;6133527;23;20140;-70
2023/05/01 07:38:03;;;;;;;5.70;2.50;;;15.90;54.10;;;;;;6108277;23;20173;-70
2023/05/01 07:40:33;;;;;;;3.77;2.43;;;16.00;53.80;;;;;;6134456;23;20188;-70
2023/05/01 07:42:58;;;;;;;5.50;3.00;;;16.10;53.70;;;;;;6137733;23;20135;-69
2023/05/01 07:45:24;;;;;;;4.07;2.83;;;16.20;53.10;;;;;;6144264;23;20371;-70
2023/05/01 07:47:51;;;;;;;3.00;2.60;;;16.30;53.00;;;;;;6143573;23;20151;-71
2023/05/01 07:50:17;;;;;;;2.63;2.37;;;16.30;52.60;;;;;;6111477;23;20188;-69
2023/05/01 07:52:42;;;;;;;2.90;2.20;;;16.40;52.60;;;;;;6136858;23;20395;-70
2023/05/01 07:55:08;;;;;;;4.57;2.60;;;16.40;52.70;;;;;;6138315;23;20379;-69
2023/05/01 07:57:35;;;;;;;7.77;2.40;;;16.40;52.50;;;;;;6135326;23;20245;-71
2023/05/01 08:00:00;;;;;;;3.43;2.70;;;16.40;52.40;;;;;;6138992;23;20446;-68
2023/05/01 08:02:26;;;;;;;3.57;2.70;;;16.50;52.30;;;;;;6140936;23;20451;-68
2023/05/01 08:04:52;;;;;;;4.97;2.77;;;16.50;51.90;;;;;;6139694;23;20137;-68
2023/05/01 08:07:17;;;;;;;3.90;2.87;;;16.60;52.10;;;;;;6140081;23;20151;-70
2023/05/01 08:09:43;;;;;;;2.87;2.50;;;16.70;51.80;;;;;;6137963;23;20196;-70
2023/05/01 08:12:08;;;;;;;5.17;2.93;;;16.60;51.60;;;;;;6139127;23;20150;-74
2023/05/01 08:14:34;;;;;;;4.97;3.10;;;16.70;51.30;;;;;;6087757;23;20156;-71
2023/05/01 08:17:00;;;;;;;4.03;2.60;;;16.70;51.50;;;;;;6137082;23;20369;-69
2023/05/01 08:19:26;;;;;;;5.10;2.90;;;16.80;51.10;;;;;;6111660;23;20537;-70
2023/05/01 08:21:52;;;;;;;3.20;2.90;;;17.00;50.60;;;;;;6136559;23;20157;-72
2023/05/01 08:24:18;;;;;;;5.00;2.63;;;17.10;50.30;;;;;;6109752;23;20388;-71
2023/05/01 08:26:44;;;;;;;3.77;2.53;;;17.10;50.00;;;;;;6136160;23;20360;-71
2023/05/01 08:29:09;;;;;;;3.53;2.60;;;17.00;50.00;;;;;;6134947;23;20176;-71
2023/05/01 08:31:36;;;;;;;3.97;3.30;;;17.00;50.50;;;;;;6135757;23;20565;-69
2023/05/01 08:34:03;;;;;;;4.00;3.60;;;17.20;50.50;;;;;;6137465;23;20132;-70
2023/05/01 08:36:29;;;;;;;5.20;3.97;;;17.40;50.10;;;;;;6135371;23;20423;-70
2023/05/01 08:38:55;;;;;;;3.37;3.07;;;17.50;49.40;;;;;;6135434;23;20478;-72
2023/05/01 08:41:22;;;;;;;4.30;2.80;;;17.60;49.20;;;;;;6135757;23;20411;-71
2023/05/01 08:43:48;;;;;;;3.97;2.80;;;17.70;49.50;;;;;;6135192;23;20164;-70
2023/05/01 08:46:22;;;;;;;5.33;2.93;;;18.10;48.90;;;;;;6086361;23;20372;-70
2023/05/01 08:48:49;;;;;;;5.13;2.60;;;18.20;48.10;;;;;;6111913;23;20364;-71
2023/05/01 08:51:18;;;;;;;4.50;2.70;;;18.40;47.30;;;;;;6137415;23;20363;-71
2023/05/01 08:53:49;;;;;;;5.23;2.70;;;18.40;47.30;;;;;;6135607;23;20395;-71
2023/05/01 08:56:16;;;;;;;5.03;2.70;;;18.20;47.70;;;;;;6110771;23;20383;-70
2023/05/01 08:58:44;;;;;;;2.50;2.30;;;18.30;47.70;;;;;;6138110;23;20412;-72
2023/05/01 09:01:14;;;;;;;3.07;2.77;;;18.30;47.80;;;;;;6136287;23;20360;-69
2023/05/01 09:03:41;;;;;;;3.70;2.57;;;18.40;47.60;;;;;;6136456;23;20365;-71
2023/05/01 09:06:08;;;;;;;2.97;2.53;;;18.50;47.30;;;;;;6135842;23;20420;-73
2023/05/01 09:08:34;;;;;;;6.20;2.80;;;18.50;47.40;;;;;;6134883;23;20348;-69
2023/05/01 09:11:01;;;;;;;3.27;2.43;;;18.50;47.80;;;;;;6135102;23;20808;-69
2023/05/01 09:13:27;;;;;;;5.77;3.03;;;18.70;47.70;;;;;;6140071;23;20153;-71
2023/05/01 09:15:52;;;;;;;2.90;2.60;;;19.00;47.10;;;;;;6145492;23;20440;-77
2023/05/01 09:18:18;;;;;;;4.27;2.40;;;19.10;46.80;;;;;;6120654;23;20655;-70
2023/05/01 09:20:43;;;;;;;7.50;2.80;;;19.20;47.00;;;;;;6134922;23;20169;-71
2023/05/01 09:23:10;;;;;;;3.73;2.23;;;19.40;46.60;;;;;;6136165;23;20158;-70
2023/05/01 09:25:37;;;;;;;3.90;2.73;;;19.40;46.10;;;;;;6135682;23;20397;-73
2023/05/01 09:28:06;;;;;;;3.20;2.70;;;19.60;45.80;;;;;;6134522;23;20405;-71
2023/05/01 09:30:38;;;;;;;5.23;3.60;;;19.60;45.70;;;;;;6136051;23;20405;-71
2023/05/01 09:33:08;;;;;;;3.80;2.77;;;19.60;45.70;;;;;;6136811;23;20371;-70
2023/05/01 09:35:51;;;;;;;2.70;2.07;;;19.40;46.10;;;;;;6135486;23;20453;-70
2023/05/01 09:38:18;;;;;;;4.63;2.60;;;19.40;46.50;;;;;;6136527;23;20415;-73
2023/05/01 09:40:45;;;;;;;5.30;2.63;;;19.40;46.50;;;;;;6139045;23;20471;-71
2023/05/01 09:43:11;;;;;;;4.53;2.77;;;19.40;46.50;;;;;;6113075;23;20630;-71
2023/05/01 09:45:38;;;;;;;4.80;3.07;;;19.50;46.50;;;;;;6140470;23;20368;-70
2023/05/01 09:48:11;;;;;;;5.10;2.70;;;19.60;46.10;;;;;;6138820;23;20131;-74
2023/05/01 09:50:41;;;;;;;4.80;2.63;;;19.70;46.50;;;;;;6137336;23;20399;-71
2023/05/01 09:53:07;;;;;;;3.20;2.70;;;19.70;46.40;;;;;;6137549;23;20462;-70
2023/05/01 09:55:33;;;;;;;3.93;2.83;;;19.80;46.50;;;;;;6111954;23;20371;-72
2023/05/01 09:57:59;;;;;;;5.23;3.00;;;20.00;46.20;;;;;;6136423;23;20430;-73
2023/05/01 10:00:25;;;;;;;4.20;3.13;;;20.20;45.50;;;;;;6138036;23;20391;-70
2023/05/01 10:02:51;;;;;;;4.80;3.57;;;20.10;44.40;;;;;;6112178;23;20144;-73
2023/05/01 10:05:17;;;;;;;4.20;2.80;;;19.90;44.60;;;;;;6113708;23;20783;-70
2023/05/01 10:07:57;;;;;;;3.20;2.53;;;19.90;45.00;;;;;;6110909;23;20384;-70
2023/05/01 10:10:23;;;;;;;4.70;3.83;;;20.10;45.10;;;;;;6134627;23;20438;-69
2023/05/01 10:12:49;;;;;;;2.87;2.17;;;20.30;44.70;;;;;;6134480;23;20358;-71
2023/05/01 10:15:16;;;;;;;3.03;2.60;;;20.50;44.40;;;;;;6134780;23;20144;-70
2023/05/01 10:17:42;;;;;;;2.70;2.23;;;20.40;44.60;;;;;;6133112;23;20416;-71
2023/05/01 10:20:12;;;;;;;3.07;2.60;;;20.50;44.90;;;;;;6061123;23;20824;-70
2023/05/01 10:22:38;;;;;;;3.17;2.87;;;20.40;44.30;;;;;;6087325;23;20391;-73
2023/05/01 10:25:09;;;;;;;6.53;3.73;;;20.50;43.80;;;;;;6109958;23;20413;-72
2023/05/01 10:27:36;;;;;;;4.30;3.20;;;20.40;43.70;;;;;;6135496;23;20466;-72
2023/05/01 10:30:04;;;;;;;3.30;2.93;;;20.30;43.80;;;;;;6111778;23;20406;-74
2023/05/01 10:32:31;;;;;;;4.43;3.10;;;20.30;43.90;;;;;;6138370;23;20382;-74
2023/05/01 10:35:13;;;;;;;3.80;2.30;;;20.50;43.90;;;;;;6111536;23;20463;-74
2023/05/01 10:37:45;;;;;;;4.13;2.63;;;20.50;43.20;;;;;;6139434;23;20407;-72
2023/05/01 10:40:40;;;;;;;4.50;2.53;;;20.60;42.90;;;;;;6089634;23;20425;-74
2023/05/01 10:43:24;;;;;;;4.10;2.50;;;20.50;42.90;;;;;;6092794;23;20364;-75
2023/05/01 10:45:50;;;;;;;6.07;4.43;;;20.70;42.60;;;;;;6111819;23;20377;-71
2023/05/01 10:48:38;;;;;;;4.37;2.60;;;20.70;42.50;;;;;;6091791;23;20441;-70
2023/05/01 10:51:11;;;;;;;4.17;2.93;;;20.80;42.20;;;;;;6114521;23;20360;-73
2023/05/01 10:53:38;;;;;;;3.70;3.10;;;21.00;41.90;;;;;;6083813;23;20388;-73
2023/05/01 10:56:04;;;;;;;3.10;2.80;;;20.60;41.70;;;;;;6110569;23;20420;-74
2023/05/01 10:58:37;;;;;;;4.77;2.83;;;20.40;42.10;;;;;;6082696;23;20420;-71
2023/05/01 11:01:27;;;;;;;2.83;2.40;;;20.50;42.10;;;;;;6108737;23;20365;-73
2023/05/01 11:04:07;;;;;;;4.87;2.53;;;20.60;41.90;;;;;;6108914;23;20375;-74
2023/05/01 11:06:34;;;;;;;3.43;2.43;;;20.80;40.80;;;;;;6108508;23;20710;-73
2023/05/01 11:09:00;;;;;;;2.37;2.17;;;20.90;41.00;;;;;;6112312;23;20411;-76
2023/05/01 11:11:26;;;;;;;3.03;2.40;;;21.00;40.20;;;;;;6088034;23;20449;-72
2023/05/01 11:14:06;;;;;;;2.27;2.03;;;21.20;39.70;;;;;;6108622;23;20360;-73
2023/05/01 11:16:44;;;;;;;3.67;2.20;;;21.50;39.60;;;;;;6109250;23;20140;-72
2023/05/01 11:19:22;;;;;;;2.93;2.30;;;21.90;38.60;;;;;;6106837;23;20427;-72
2023/05/01 11:21:49;;;;;;;2.70;2.07;;;22.20;38.30;;;;;;6108974;23;20464;-72
2023/05/01 11:24:16;;;;;;;7.37;2.40;;;22.30;38.70;;;;;;6108176;23;20654;-70
2023/05/01 11:26:42;;;;;;;3.40;1.90;;;22.40;38.20;;;;;;6083955;23;20353;-72
2023/05/01 11:29:09;;;;;;;4.10;2.20;;;22.50;38.30;;;;;;6110535;23;20407;-73
2023/05/01 11:31:35;;;;;;;2.90;2.10;;;22.70;37.40;;;;;;6087166;23;20248;-71
2023/05/01 11:34:02;;;;;;;2.37;2.17;;;22.80;37.40;;;;;;6113494;23;20361;-74
2023/05/01 11:36:29;;;;;;;2.60;1.90;;;23.00;37.10;;;;;;6110649;23;20504;-72
2023/05/01 11:38:58;;;;;;;4.37;2.63;;;22.90;36.20;;;;;;6082860;23;20496;-71
2023/05/01 11:41:25;;;;;;;3.90;2.50;;;22.70;36.40;;;;;;6130264;23;20426;-73
2023/05/01 11:43:57;;;;;;;2.80;2.50;;;22.40;36.90;;;;;;6112520;23;20798;-73
2023/05/01 11:46:26;;;;;;;3.23;1.90;;;22.30;37.20;;;;;;6138939;23;20360;-72
2023/05/01 11:48:59;;;;;;;2.30;2.10;;;22.50;37.20;;;;;;6112712;23;20805;-73
2023/05/01 11:51:26;;;;;;;3.50;2.27;;;22.50;36.80;;;;;;6139921;23;20789;-75
2023/05/01 11:54:13;;;;;;;2.57;2.00;;;22.40;37.10;;;;;;6113635;23;20427;-73
2023/05/01 11:56:42;;;;;;;2.73;2.13;;;22.40;37.50;;;;;;6113927;23;20379;-73
2023/05/01 11:59:15;;;;;;;3.30;2.63;;;22.50;37.00;;;;;;6136906;23;20423;-73
2023/05/01 12:01:44;;;;;;;3.60;1.70;;;22.80;36.60;;;;;;6120012;23;20440;-73
2023/05/01 12:04:11;;;;;;;3.43;2.07;;;22.80;36.40;;;;;;6147249;23;20360;-73
2023/05/01 12:06:42;;;;;;;2.43;2.07;;;23.00;35.90;;;;;;6113735;23;20630;-74
2023/05/01 12:09:10;;;;;;;3.53;2.77;;;23.00;36.10;;;;;;6138943;23;20398;-72
2023/05/01 12:11:37;;;;;;;2.33;1.83;;;23.10;36.80;;;;;;6114650;23;20376;-74
2023/05/01 12:14:03;;;;;;;2.87;2.10;;;23.40;36.90;;;;;;6139842;23;20386;-72
2023/05/01 12:16:29;;;;;;;2.37;2.17;;;23.70;37.40;;;;;;6114527;23;20380;-74
2023/05/01 12:18:55;;;;;;;3.13;2.50;;;23.90;36.70;;;;;;6140014;23;20435;-75
2023/05/01 12:21:21;;;;;;;3.00;2.13;;;23.60;36.50;;;;;;6113413;23;20864;-73
2023/05/01 12:23:48;;;;;;;4.30;3.00;;;23.70;36.10;;;;;;6141806;23;20191;-75
2023/05/01 12:26:24;;;;;;;3.27;2.63;;;23.60;36.20;;;;;;6117058;23;20390;-74
2023/05/01 12:28:58;;;;;;;4.23;2.50;;;23.10;36.60;;;;;;6117672;23;20355;-75
2023/05/01 12:31:25;;;;;;;6.37;4.40;;;22.60;36.90;;;;;;6119091;23;20364;-73
2023/05/01 12:33:55;;;;;;;3.63;2.40;;;22.10;37.90;;;;;;6142382;23;20364;-74
2023/05/01 12:36:24;;;;;;;3.50;2.27;;;22.00;37.80;;;;;;6145001;23;20427;-73
2023/05/01 12:39:02;;;;;;;2.97;2.67;;;22.30;37.60;;;;;;6143689;23;20476;-75
2023/05/01 12:41:40;;;;;;;2.53;1.90;;;22.70;37.60;;;;;;6144182;23;20435;-73
2023/05/01 12:44:22;;;;;;;2.43;1.40;;;23.00;37.20;;;;;;6090172;23;20368;-74
2023/05/01 12:46:55;;;;;;;3.33;2.10;;;23.20;37.00;;;;;;6110778;23;20400;-71
2023/05/01 12:49:22;;;;;;;3.20;2.20;;;23.40;36.30;;;;;;6111471;23;20435;-72
2023/05/01 12:51:56;;;;;;;2.93;2.37;;;23.20;35.30;;;;;;6110511;23;20372;-72
2023/05/01 12:54:23;;;;;;;3.63;2.13;;;23.00;34.80;;;;;;6136288;23;20411;-73